sensor_id;sensor_type;location;lat;lon;timestamp;temperature;humidity
21214;DHT22;10764;50.850;2.904;2023-03-14T00:01:11;18.70;55.60
21214;DHT22;10764;50.850;2.904;2023-03-14T00:03:38;18.70;55.70
21214;DHT22;10764;50.850;2.904;2023-03-14T00:06:06;21.30;57.00
21214;DHT22;10764;50.850;2.904;2023-03-14T00:08:33;18.70;55.70
21214;DHT22;10764;50.850;2.904;2023-03-14T00:11:13;20.80;56.80
21214;DHT22;10764;50.850;2.904;2023-03-14T00:13:40;21.50;57.10
21214;DHT22;10764;50.850;2.904;2023-03-14T00:16:12;19.50;56.20
21214;DHT22;10764;50.850;2.904;2023-03-14T00:18:39;19.70;56.20
21214;DHT22;10764;50.850;2.904;2023-03-14T00:21:08;18.70;55.80
21214;DHT22;10764;50.850;2.904;2023-03-14T00:23:37;18.80;55.80
21214;DHT22;10764;50.850;2.904;2023-03-14T00:26:07;21.50;57.20
21214;DHT22;10764;50.850;2.904;2023-03-14T00:28:35;18.70;55.80
21214;DHT22;10764;50.850;2.904;2023-03-14T00:31:06;19.70;56.20
21214;DHT22;10764;50.850;2.904;2023-03-14T00:33:34;18.70;55.80
21214;DHT22;10764;50.850;2.904;2023-03-14T00:36:08;18.70;55.80
21214;DHT22;10764;50.850;2.904;2023-03-14T00:38:37;18.70;55.80
21214;DHT22;10764;50.850;2.904;2023-03-14T00:41:24;20.60;56.70
21214;DHT22;10764;50.850;2.904;2023-03-14T00:43:52;18.70;56.10
21214;DHT22;10764;50.850;2.904;2023-03-14T00:46:19;18.70;56.00
21214;DHT22;10764;50.850;2.904;2023-03-14T00:48:46;20.90;57.10
21214;DHT22;10764;50.850;2.904;2023-03-14T00:51:13;20.30;56.70
21214;DHT22;10764;50.850;2.904;2023-03-14T00:53:43;19.00;56.00
21214;DHT22;10764;50.850;2.904;2023-03-14T00:56:11;21.60;57.40
21214;DHT22;10764;50.850;2.904;2023-03-14T00:58:40;20.10;56.50
21214;DHT22;10764;50.850;2.904;2023-03-14T01:01:10;19.10;56.40
21214;DHT22;10764;50.850;2.904;2023-03-14T01:03:37;18.70;55.90
21214;DHT22;10764;50.850;2.904;2023-03-14T01:06:14;20.60;56.90
21214;DHT22;10764;50.850;2.904;2023-03-14T01:08:43;18.70;55.90
21214;DHT22;10764;50.850;2.904;2023-03-14T01:11:13;21.00;57.10
21214;DHT22;10764;50.850;2.904;2023-03-14T01:13:40;18.60;55.90
21214;DHT22;10764;50.850;2.904;2023-03-14T01:16:08;18.70;56.70
21214;DHT22;10764;50.850;2.904;2023-03-14T01:18:37;18.70;56.00
21214;DHT22;10764;50.850;2.904;2023-03-14T01:21:10;19.80;56.60
21214;DHT22;10764;50.850;2.904;2023-03-14T01:23:37;18.70;56.00
21214;DHT22;10764;50.850;2.904;2023-03-14T01:26:04;18.60;56.10
21214;DHT22;10764;50.850;2.904;2023-03-14T01:28:34;18.70;56.10
21214;DHT22;10764;50.850;2.904;2023-03-14T01:31:06;19.70;56.60
21214;DHT22;10764;50.850;2.904;2023-03-14T01:33:33;18.70;56.30
21214;DHT22;10764;50.850;2.904;2023-03-14T01:36:00;20.10;56.90
21214;DHT22;10764;50.850;2.904;2023-03-14T01:38:30;18.70;56.20
21214;DHT22;10764;50.850;2.904;2023-03-14T01:40:57;18.60;56.20
21214;DHT22;10764;50.850;2.904;2023-03-14T01:43:24;18.90;56.40
21214;DHT22;10764;50.850;2.904;2023-03-14T01:51:02;18.70;56.30
21214;DHT22;10764;50.850;2.904;2023-03-14T01:53:30;18.70;56.30
21214;DHT22;10764;50.850;2.904;2023-03-14T01:55:57;18.70;56.30
21214;DHT22;10764;50.850;2.904;2023-03-14T01:58:27;18.70;56.30
21214;DHT22;10764;50.850;2.904;2023-03-14T02:00:57;20.90;57.40
21214;DHT22;10764;50.850;2.904;2023-03-14T02:03:27;19.00;56.50
21214;DHT22;10764;50.850;2.904;2023-03-14T02:06:00;18.90;56.50
21214;DHT22;10764;50.850;2.904;2023-03-14T02:08:31;18.70;56.40
21214;DHT22;10764;50.850;2.904;2023-03-14T02:11:04;19.50;56.80
21214;DHT22;10764;50.850;2.904;2023-03-14T02:13:44;18.60;56.70
21214;DHT22;10764;50.850;2.904;2023-03-14T02:16:34;18.70;56.40
21214;DHT22;10764;50.850;2.904;2023-03-14T02:19:27;19.00;56.60
21214;DHT22;10764;50.850;2.904;2023-03-14T02:22:21;18.70;56.40
21214;DHT22;10764;50.850;2.904;2023-03-14T02:27:53;18.70;56.40
21214;DHT22;10764;50.850;2.904;2023-03-14T02:30:26;19.50;56.90
21214;DHT22;10764;50.850;2.904;2023-03-14T02:33:05;20.50;57.40
21214;DHT22;10764;50.850;2.904;2023-03-14T02:40:44;18.60;56.50
21214;DHT22;10764;50.850;2.904;2023-03-14T02:43:11;18.70;56.60
21214;DHT22;10764;50.850;2.904;2023-03-14T02:45:47;18.70;56.60
21214;DHT22;10764;50.850;2.904;2023-03-14T02:48:29;18.70;56.60
21214;DHT22;10764;50.850;2.904;2023-03-14T02:50:59;18.70;57.30
21214;DHT22;10764;50.850;2.904;2023-03-14T02:53:32;20.00;57.20
21214;DHT22;10764;50.850;2.904;2023-03-14T02:56:05;18.70;56.60
21214;DHT22;10764;50.850;2.904;2023-03-14T02:58:35;18.60;56.60
21214;DHT22;10764;50.850;2.904;2023-03-14T03:01:10;20.70;57.60
21214;DHT22;10764;50.850;2.904;2023-03-14T03:03:37;18.90;56.80
21214;DHT22;10764;50.850;2.904;2023-03-14T03:06:04;19.30;57.00
21214;DHT22;10764;50.850;2.904;2023-03-14T03:08:31;18.60;56.70
21214;DHT22;10764;50.850;2.904;2023-03-14T03:10:59;20.70;57.70
21214;DHT22;10764;50.850;2.904;2023-03-14T03:13:28;20.00;57.40
21214;DHT22;10764;50.850;2.904;2023-03-14T03:15:57;21.80;58.30
21214;DHT22;10764;50.850;2.904;2023-03-14T03:18:23;20.80;57.80
21214;DHT22;10764;50.850;2.904;2023-03-14T03:20:50;21.00;57.90
21214;DHT22;10764;50.850;2.904;2023-03-14T03:23:17;21.10;58.00
21214;DHT22;10764;50.850;2.904;2023-03-14T03:25:48;19.20;57.00
21214;DHT22;10764;50.850;2.904;2023-03-14T03:28:16;18.60;56.80
21214;DHT22;10764;50.850;2.904;2023-03-14T03:30:43;18.80;57.60
21214;DHT22;10764;50.850;2.904;2023-03-14T03:33:11;18.60;56.80
21214;DHT22;10764;50.850;2.904;2023-03-14T03:35:46;21.00;57.90
21214;DHT22;10764;50.850;2.904;2023-03-14T03:38:17;18.60;56.80
21214;DHT22;10764;50.850;2.904;2023-03-14T03:40:45;18.70;56.90
21214;DHT22;10764;50.850;2.904;2023-03-14T03:43:12;18.70;56.90
21214;DHT22;10764;50.850;2.904;2023-03-14T03:45:41;18.60;56.90
21214;DHT22;10764;50.850;2.904;2023-03-14T03:48:08;19.60;57.40
21214;DHT22;10764;50.850;2.904;2023-03-14T03:50:35;19.00;57.20
21214;DHT22;10764;50.850;2.904;2023-03-14T03:53:02;20.10;57.70
21214;DHT22;10764;50.850;2.904;2023-03-14T03:55:29;18.70;57.00
21214;DHT22;10764;50.850;2.904;2023-03-14T03:57:56;18.70;57.10
21214;DHT22;10764;50.850;2.904;2023-03-14T04:00:23;18.80;57.20
21214;DHT22;10764;50.850;2.904;2023-03-14T04:02:50;19.70;57.50
21214;DHT22;10764;50.850;2.904;2023-03-14T04:05:18;20.20;57.90
21214;DHT22;10764;50.850;2.904;2023-03-14T04:07:54;19.30;57.40
21214;DHT22;10764;50.850;2.904;2023-03-14T04:10:24;19.10;57.30
21214;DHT22;10764;50.850;2.904;2023-03-14T04:13:04;18.70;57.20
21214;DHT22;10764;50.850;2.904;2023-03-14T04:15:32;20.40;58.00
21214;DHT22;10764;50.850;2.904;2023-03-14T04:18:03;20.00;57.90
21214;DHT22;10764;50.850;2.904;2023-03-14T04:20:34;18.60;57.10
21214;DHT22;10764;50.850;2.904;2023-03-14T04:23:02;18.60;57.10
21214;DHT22;10764;50.850;2.904;2023-03-14T04:25:29;20.50;58.10
21214;DHT22;10764;50.850;2.904;2023-03-14T04:27:57;21.40;58.60
21214;DHT22;10764;50.850;2.904;2023-03-14T04:30:28;20.40;58.20
21214;DHT22;10764;50.850;2.904;2023-03-14T04:32:58;18.90;57.40
21214;DHT22;10764;50.850;2.904;2023-03-14T04:35:26;18.60;57.30
21214;DHT22;10764;50.850;2.904;2023-03-14T04:37:58;18.90;57.40
21214;DHT22;10764;50.850;2.904;2023-03-14T04:40:26;18.70;57.30
21214;DHT22;10764;50.850;2.904;2023-03-14T04:42:58;19.30;57.60
21214;DHT22;10764;50.850;2.904;2023-03-14T04:45:24;20.50;58.20
21214;DHT22;10764;50.850;2.904;2023-03-14T04:47:51;20.00;57.90
21214;DHT22;10764;50.850;2.904;2023-03-14T04:50:19;18.70;57.40
21214;DHT22;10764;50.850;2.904;2023-03-14T04:52:47;18.60;57.30
21214;DHT22;10764;50.850;2.904;2023-03-14T04:55:14;20.30;58.10
21214;DHT22;10764;50.850;2.904;2023-03-14T04:57:41;18.60;57.30
21214;DHT22;10764;50.850;2.904;2023-03-14T05:00:09;19.50;57.70
21214;DHT22;10764;50.850;2.904;2023-03-14T05:02:46;18.60;57.30
21214;DHT22;10764;50.850;2.904;2023-03-14T05:05:22;19.50;57.70
21214;DHT22;10764;50.850;2.904;2023-03-14T05:08:03;18.50;57.30
21214;DHT22;10764;50.850;2.904;2023-03-14T05:10:39;18.60;57.30
21214;DHT22;10764;50.850;2.904;2023-03-14T05:13:14;19.00;57.60
21214;DHT22;10764;50.850;2.904;2023-03-14T05:16:07;18.70;57.40
21214;DHT22;10764;50.850;2.904;2023-03-14T05:18:53;18.70;57.30
21214;DHT22;10764;50.850;2.904;2023-03-14T05:21:39;19.90;58.00
21214;DHT22;10764;50.850;2.904;2023-03-14T05:24:15;18.70;57.30
21214;DHT22;10764;50.850;2.904;2023-03-14T05:26:54;18.70;57.30
21214;DHT22;10764;50.850;2.904;2023-03-14T05:29:39;19.30;57.50
21214;DHT22;10764;50.850;2.904;2023-03-14T05:32:24;19.30;57.60
21214;DHT22;10764;50.850;2.904;2023-03-14T05:35:09;18.80;57.40
21214;DHT22;10764;50.850;2.904;2023-03-14T05:37:47;18.90;57.30
21214;DHT22;10764;50.850;2.904;2023-03-14T05:40:17;18.60;57.10
21214;DHT22;10764;50.850;2.904;2023-03-14T05:43:03;18.60;57.10
21214;DHT22;10764;50.850;2.904;2023-03-14T05:45:52;18.50;57.10
21214;DHT22;10764;50.850;2.904;2023-03-14T05:48:38;18.90;57.20
21214;DHT22;10764;50.850;2.904;2023-03-14T05:51:19;18.70;57.10
21214;DHT22;10764;50.850;2.904;2023-03-14T05:53:59;18.60;57.10
21214;DHT22;10764;50.850;2.904;2023-03-14T05:56:44;18.70;57.10
21214;DHT22;10764;50.850;2.904;2023-03-14T05:59:31;19.70;57.60
21214;DHT22;10764;50.850;2.904;2023-03-14T06:02:11;19.00;57.20
21214;DHT22;10764;50.850;2.904;2023-03-14T06:04:52;18.60;57.00
21214;DHT22;10764;50.850;2.904;2023-03-14T06:07:19;19.10;57.20
21214;DHT22;10764;50.850;2.904;2023-03-14T06:09:46;18.60;57.00
21214;DHT22;10764;50.850;2.904;2023-03-14T06:12:16;20.30;57.80
21214;DHT22;10764;50.850;2.904;2023-03-14T06:14:45;18.70;57.10
21214;DHT22;10764;50.850;2.904;2023-03-14T06:17:12;18.60;57.00
21214;DHT22;10764;50.850;2.904;2023-03-14T06:19:49;20.30;57.80
21214;DHT22;10764;50.850;2.904;2023-03-14T06:22:16;18.70;57.00
21214;DHT22;10764;50.850;2.904;2023-03-14T06:24:43;20.10;57.70
21214;DHT22;10764;50.850;2.904;2023-03-14T06:27:10;20.20;57.60
21214;DHT22;10764;50.850;2.904;2023-03-14T06:29:36;20.20;57.50
21214;DHT22;10764;50.850;2.904;2023-03-14T06:32:03;18.70;56.80
21214;DHT22;10764;50.850;2.904;2023-03-14T06:34:31;18.60;56.80
21214;DHT22;10764;50.850;2.904;2023-03-14T06:36:58;20.80;57.90
21214;DHT22;10764;50.850;2.904;2023-03-14T06:39:25;20.40;57.60
21214;DHT22;10764;50.850;2.904;2023-03-14T06:42:01;18.90;56.80
21214;DHT22;10764;50.850;2.904;2023-03-14T06:44:28;18.60;56.50
21214;DHT22;10764;50.850;2.904;2023-03-14T06:46:55;18.70;56.40
21214;DHT22;10764;50.850;2.904;2023-03-14T06:49:22;18.60;56.20
21214;DHT22;10764;50.850;2.904;2023-03-14T06:51:52;18.60;56.20
21214;DHT22;10764;50.850;2.904;2023-03-14T06:54:18;18.60;56.10
21214;DHT22;10764;50.850;2.904;2023-03-14T06:56:46;20.30;57.00
21214;DHT22;10764;50.850;2.904;2023-03-14T06:59:13;21.10;57.30
21214;DHT22;10764;50.850;2.904;2023-03-14T07:01:41;18.60;56.00
21214;DHT22;10764;50.850;2.904;2023-03-14T07:04:10;20.40;56.80
21214;DHT22;10764;50.850;2.904;2023-03-14T07:06:41;18.60;55.90
21214;DHT22;10764;50.850;2.904;2023-03-14T07:09:11;18.60;55.90
21214;DHT22;10764;50.850;2.904;2023-03-14T07:11:42;19.90;56.50
21214;DHT22;10764;50.850;2.904;2023-03-14T07:14:09;18.60;55.90
21214;DHT22;10764;50.850;2.904;2023-03-14T07:16:36;18.70;56.10
21214;DHT22;10764;50.850;2.904;2023-03-14T07:19:03;21.00;57.20
21214;DHT22;10764;50.850;2.904;2023-03-14T07:21:30;19.90;56.60
21214;DHT22;10764;50.850;2.904;2023-03-14T07:23:59;18.70;56.10
21214;DHT22;10764;50.850;2.904;2023-03-14T07:26:26;18.80;56.10
21214;DHT22;10764;50.850;2.904;2023-03-14T07:28:53;20.00;56.70
21214;DHT22;10764;50.850;2.904;2023-03-14T07:31:21;19.80;56.50
21214;DHT22;10764;50.850;2.904;2023-03-14T07:33:48;20.10;56.60
21214;DHT22;10764;50.850;2.904;2023-03-14T07:36:16;19.00;56.20
21214;DHT22;10764;50.850;2.904;2023-03-14T07:38:44;20.10;57.00
21214;DHT22;10764;50.850;2.904;2023-03-14T07:41:33;20.90;57.80
21214;DHT22;10764;50.850;2.904;2023-03-14T07:44:38;19.70;57.40
21214;DHT22;10764;50.850;2.904;2023-03-14T07:47:05;20.10;57.80
21214;DHT22;10764;50.850;2.904;2023-03-14T07:49:32;20.90;58.30
21214;DHT22;10764;50.850;2.904;2023-03-14T07:51:59;21.00;58.40
21214;DHT22;10764;50.850;2.904;2023-03-14T07:54:26;18.70;57.50
21214;DHT22;10764;50.850;2.904;2023-03-14T07:56:52;18.70;57.70
21214;DHT22;10764;50.850;2.904;2023-03-14T07:59:19;18.70;57.70
21214;DHT22;10764;50.850;2.904;2023-03-14T08:01:47;19.90;58.50
21214;DHT22;10764;50.850;2.904;2023-03-14T08:04:14;19.20;58.30
21214;DHT22;10764;50.850;2.904;2023-03-14T08:06:40;21.00;59.30
21214;DHT22;10764;50.850;2.904;2023-03-14T08:09:07;20.80;59.20
21214;DHT22;10764;50.850;2.904;2023-03-14T08:11:34;21.20;59.40
21214;DHT22;10764;50.850;2.904;2023-03-14T08:14:01;18.90;58.30
21214;DHT22;10764;50.850;2.904;2023-03-14T08:16:28;21.30;59.50
21214;DHT22;10764;50.850;2.904;2023-03-14T08:18:55;20.90;59.20
21214;DHT22;10764;50.850;2.904;2023-03-14T08:21:22;21.20;59.30
21214;DHT22;10764;50.850;2.904;2023-03-14T08:23:49;19.50;58.50
21214;DHT22;10764;50.850;2.904;2023-03-14T08:26:16;19.70;58.30
21214;DHT22;10764;50.850;2.904;2023-03-14T08:28:42;21.00;58.90
21214;DHT22;10764;50.850;2.904;2023-03-14T08:31:09;20.70;58.70
21214;DHT22;10764;50.850;2.904;2023-03-14T08:33:37;18.70;58.50
21214;DHT22;10764;50.850;2.904;2023-03-14T08:36:04;18.70;58.00
21214;DHT22;10764;50.850;2.904;2023-03-14T08:38:33;18.70;57.50
21214;DHT22;10764;50.850;2.904;2023-03-14T08:41:00;21.00;58.60
21214;DHT22;10764;50.850;2.904;2023-03-14T08:43:28;19.80;57.90
21214;DHT22;10764;50.850;2.904;2023-03-14T08:45:59;20.20;58.10
21214;DHT22;10764;50.850;2.904;2023-03-14T08:48:27;19.60;57.70
21214;DHT22;10764;50.850;2.904;2023-03-14T08:51:01;19.80;57.70
21214;DHT22;10764;50.850;2.904;2023-03-14T08:53:30;20.10;57.80
21214;DHT22;10764;50.850;2.904;2023-03-14T08:55:56;21.20;58.30
21214;DHT22;10764;50.850;2.904;2023-03-14T08:58:24;21.50;58.30
21214;DHT22;10764;50.850;2.904;2023-03-14T09:00:51;19.00;56.90
21214;DHT22;10764;50.850;2.904;2023-03-14T09:03:18;19.30;56.90
21214;DHT22;10764;50.850;2.904;2023-03-14T09:05:45;18.60;56.50
21214;DHT22;10764;50.850;2.904;2023-03-14T09:08:11;19.60;57.00
21214;DHT22;10764;50.850;2.904;2023-03-14T09:10:38;20.40;57.40
21214;DHT22;10764;50.850;2.904;2023-03-14T09:13:05;20.20;57.10
21214;DHT22;10764;50.850;2.904;2023-03-14T09:15:32;19.60;56.60
21214;DHT22;10764;50.850;2.904;2023-03-14T09:17:59;18.80;56.80
21214;DHT22;10764;50.850;2.904;2023-03-14T09:20:26;21.10;57.50
21214;DHT22;10764;50.850;2.904;2023-03-14T09:22:53;21.70;57.70
21214;DHT22;10764;50.850;2.904;2023-03-14T09:25:20;19.50;57.10
21214;DHT22;10764;50.850;2.904;2023-03-14T09:27:46;19.10;56.90
21214;DHT22;10764;50.850;2.904;2023-03-14T09:30:13;20.90;57.90
21214;DHT22;10764;50.850;2.904;2023-03-14T09:32:40;18.70;56.80
21214;DHT22;10764;50.850;2.904;2023-03-14T09:35:07;20.00;56.70
21214;DHT22;10764;50.850;2.904;2023-03-14T09:37:34;18.70;55.80
21214;DHT22;10764;50.850;2.904;2023-03-14T09:40:01;20.10;56.50
21214;DHT22;10764;50.850;2.904;2023-03-14T09:42:37;18.70;55.80
21214;DHT22;10764;50.850;2.904;2023-03-14T09:45:10;20.10;56.40
21214;DHT22;10764;50.850;2.904;2023-03-14T09:47:39;18.70;55.60
21214;DHT22;10764;50.850;2.904;2023-03-14T09:50:23;18.60;55.50
21214;DHT22;10764;50.850;2.904;2023-03-14T09:52:56;18.70;55.50
21214;DHT22;10764;50.850;2.904;2023-03-14T09:55:23;18.70;55.50
21214;DHT22;10764;50.850;2.904;2023-03-14T09:57:55;18.70;55.40
21214;DHT22;10764;50.850;2.904;2023-03-14T10:00:26;18.70;55.30
21214;DHT22;10764;50.850;2.904;2023-03-14T10:03:00;20.00;55.90
21214;DHT22;10764;50.850;2.904;2023-03-14T10:05:31;20.60;56.10
21214;DHT22;10764;50.850;2.904;2023-03-14T10:07:58;19.70;55.60
21214;DHT22;10764;50.850;2.904;2023-03-14T10:10:26;18.80;55.10
21214;DHT22;10764;50.850;2.904;2023-03-14T10:16:08;18.70;54.90
21214;DHT22;10764;50.850;2.904;2023-03-14T10:18:34;18.80;54.90
21214;DHT22;10764;50.850;2.904;2023-03-14T10:21:25;18.70;54.80
21214;DHT22;10764;50.850;2.904;2023-03-14T10:23:53;18.70;54.70
21214;DHT22;10764;50.850;2.904;2023-03-14T10:26:27;20.90;55.80
21214;DHT22;10764;50.850;2.904;2023-03-14T10:29:03;20.30;55.40
21214;DHT22;10764;50.850;2.904;2023-03-14T10:31:47;18.70;54.60
21214;DHT22;10764;50.850;2.904;2023-03-14T10:34:25;20.20;55.20
21214;DHT22;10764;50.850;2.904;2023-03-14T10:36:54;18.80;54.50
21214;DHT22;10764;50.850;2.904;2023-03-14T10:39:41;20.00;55.80
21214;DHT22;10764;50.850;2.904;2023-03-14T10:42:27;18.70;54.40
21214;DHT22;10764;50.850;2.904;2023-03-14T10:44:59;18.80;54.40
21214;DHT22;10764;50.850;2.904;2023-03-14T10:47:27;20.00;55.00
21214;DHT22;10764;50.850;2.904;2023-03-14T10:49:56;19.20;54.60
21214;DHT22;10764;50.850;2.904;2023-03-14T10:52:27;18.70;54.40
21214;DHT22;10764;50.850;2.904;2023-03-14T10:55:14;18.70;54.30
21214;DHT22;10764;50.850;2.904;2023-03-14T10:57:41;18.70;54.30
21214;DHT22;10764;50.850;2.904;2023-03-14T11:00:15;19.00;54.40
21214;DHT22;10764;50.850;2.904;2023-03-14T11:07:53;18.70;54.20
21214;DHT22;10764;50.850;2.904;2023-03-14T11:10:43;19.40;54.50
21214;DHT22;10764;50.850;2.904;2023-03-14T11:13:14;20.40;55.10
21214;DHT22;10764;50.850;2.904;2023-03-14T11:23:39;18.80;54.10
21214;DHT22;10764;50.850;2.904;2023-03-14T11:26:26;18.60;54.10
21214;DHT22;10764;50.850;2.904;2023-03-14T11:29:12;18.70;54.10
21214;DHT22;10764;50.850;2.904;2023-03-14T11:31:43;18.70;54.10
21214;DHT22;10764;50.850;2.904;2023-03-14T11:37:14;18.70;54.00
21214;DHT22;10764;50.850;2.904;2023-03-14T11:40:00;20.20;54.70
21214;DHT22;10764;50.850;2.904;2023-03-14T11:42:29;20.20;54.80
21214;DHT22;10764;50.850;2.904;2023-03-14T11:44:57;19.90;54.60
21214;DHT22;10764;50.850;2.904;2023-03-14T11:47:30;19.70;54.50
21214;DHT22;10764;50.850;2.904;2023-03-14T11:50:12;18.70;53.90
21214;DHT22;10764;50.850;2.904;2023-03-14T11:52:46;19.30;54.20
21214;DHT22;10764;50.850;2.904;2023-03-14T11:55:28;18.70;53.80
21214;DHT22;10764;50.850;2.904;2023-03-14T11:58:08;18.60;53.80
21214;DHT22;10764;50.850;2.904;2023-03-14T12:00:38;18.80;53.80
21214;DHT22;10764;50.850;2.904;2023-03-14T12:03:17;19.00;53.90
21214;DHT22;10764;50.850;2.904;2023-03-14T12:06:15;19.00;53.90
21214;DHT22;10764;50.850;2.904;2023-03-14T12:08:58;18.60;53.70
21214;DHT22;10764;50.850;2.904;2023-03-14T12:11:47;18.60;53.70
21214;DHT22;10764;50.850;2.904;2023-03-14T12:16:57;20.10;54.40
21214;DHT22;10764;50.850;2.904;2023-03-14T12:19:28;18.60;53.70
21214;DHT22;10764;50.850;2.904;2023-03-14T12:22:26;19.90;54.30
21214;DHT22;10764;50.850;2.904;2023-03-14T12:24:59;18.60;53.70
21214;DHT22;10764;50.850;2.904;2023-03-14T12:30:41;18.60;53.70
21214;DHT22;10764;50.850;2.904;2023-03-14T12:35:45;18.60;53.70
21214;DHT22;10764;50.850;2.904;2023-03-14T12:43:41;18.60;53.50
21214;DHT22;10764;50.850;2.904;2023-03-14T12:48:49;18.60;53.50
21214;DHT22;10764;50.850;2.904;2023-03-14T12:51:37;18.60;53.50
21214;DHT22;10764;50.850;2.904;2023-03-14T12:59:36;18.60;53.40
21214;DHT22;10764;50.850;2.904;2023-03-14T13:04:35;18.60;53.40
21214;DHT22;10764;50.850;2.904;2023-03-14T13:07:12;18.60;53.40
21214;DHT22;10764;50.850;2.904;2023-03-14T13:09:54;18.60;53.30
21214;DHT22;10764;50.850;2.904;2023-03-14T13:12:34;19.30;53.70
21214;DHT22;10764;50.850;2.904;2023-03-14T13:15:15;20.80;54.30
21214;DHT22;10764;50.850;2.904;2023-03-14T13:17:45;20.90;54.30
21214;DHT22;10764;50.850;2.904;2023-03-14T13:20:24;18.60;53.50
21214;DHT22;10764;50.850;2.904;2023-03-14T13:22:53;18.60;53.20
21214;DHT22;10764;50.850;2.904;2023-03-14T13:25:20;20.00;54.10
21214;DHT22;10764;50.850;2.904;2023-03-14T13:27:52;19.10;53.60
21214;DHT22;10764;50.850;2.904;2023-03-14T13:30:26;21.80;54.70
21214;DHT22;10764;50.850;2.904;2023-03-14T13:32:54;18.60;53.60
21214;DHT22;10764;50.850;2.904;2023-03-14T13:35:29;20.30;53.90
21214;DHT22;10764;50.850;2.904;2023-03-14T13:37:59;20.70;54.00
21214;DHT22;10764;50.850;2.904;2023-03-14T13:40:38;18.60;53.00
21214;DHT22;10764;50.850;2.904;2023-03-14T13:43:21;18.60;53.20
21214;DHT22;10764;50.850;2.904;2023-03-14T13:48:19;18.60;53.80
21214;DHT22;10764;50.850;2.904;2023-03-14T13:50:52;20.50;53.70
21214;DHT22;10764;50.850;2.904;2023-03-14T13:53:20;20.40;53.70
21214;DHT22;10764;50.850;2.904;2023-03-14T13:55:47;19.60;53.30
21214;DHT22;10764;50.850;2.904;2023-03-14T13:58:40;18.60;52.80
21214;DHT22;10764;50.850;2.904;2023-03-14T14:01:24;18.60;52.70
21214;DHT22;10764;50.850;2.904;2023-03-14T14:03:53;21.60;54.20
21214;DHT22;10764;50.850;2.904;2023-03-14T14:09:01;18.60;52.70
21214;DHT22;10764;50.850;2.904;2023-03-14T14:11:42;18.60;53.00
21214;DHT22;10764;50.850;2.904;2023-03-14T14:14:35;18.60;52.70
21214;DHT22;10764;50.850;2.904;2023-03-14T14:17:06;18.60;52.80
21214;DHT22;10764;50.850;2.904;2023-03-14T14:19:35;18.60;52.60
21214;DHT22;10764;50.850;2.904;2023-03-14T14:22:03;21.00;53.90
21214;DHT22;10764;50.850;2.904;2023-03-14T14:24:32;21.50;54.00
21214;DHT22;10764;50.850;2.904;2023-03-14T14:27:08;18.60;52.60
21214;DHT22;10764;50.850;2.904;2023-03-14T14:29:36;18.60;52.50
21214;DHT22;10764;50.850;2.904;2023-03-14T14:32:13;18.80;52.60
21214;DHT22;10764;50.850;2.904;2023-03-14T14:34:45;18.60;52.40
21214;DHT22;10764;50.850;2.904;2023-03-14T14:37:30;18.60;52.40
21214;DHT22;10764;50.850;2.904;2023-03-14T14:40:00;19.30;52.70
21214;DHT22;10764;50.850;2.904;2023-03-14T14:42:30;21.10;53.50
21214;DHT22;10764;50.850;2.904;2023-03-14T14:44:58;18.60;52.30
21214;DHT22;10764;50.850;2.904;2023-03-14T14:47:28;20.40;53.70
21214;DHT22;10764;50.850;2.904;2023-03-14T14:49:59;21.20;53.60
21214;DHT22;10764;50.850;2.904;2023-03-14T14:52:44;19.30;52.70
21214;DHT22;10764;50.850;2.904;2023-03-14T14:55:19;18.70;52.10
21214;DHT22;10764;50.850;2.904;2023-03-14T14:57:51;18.70;52.10
21214;DHT22;10764;50.850;2.904;2023-03-14T15:00:21;19.40;52.40
21214;DHT22;10764;50.850;2.904;2023-03-14T15:02:50;18.60;51.90
21214;DHT22;10764;50.850;2.904;2023-03-14T15:05:23;18.60;51.90
21214;DHT22;10764;50.850;2.904;2023-03-14T15:07:50;20.00;52.50
21214;DHT22;10764;50.850;2.904;2023-03-14T15:10:22;19.60;52.30
21214;DHT22;10764;50.850;2.904;2023-03-14T15:12:49;18.70;51.80
21214;DHT22;10764;50.850;2.904;2023-03-14T15:15:17;18.70;51.90
21214;DHT22;10764;50.850;2.904;2023-03-14T15:17:44;18.60;51.80
21214;DHT22;10764;50.850;2.904;2023-03-14T15:20:13;18.80;51.90
21214;DHT22;10764;50.850;2.904;2023-03-14T15:22:41;18.70;51.80
21214;DHT22;10764;50.850;2.904;2023-03-14T15:25:08;18.80;51.80
21214;DHT22;10764;50.850;2.904;2023-03-14T15:27:48;18.70;51.80
21214;DHT22;10764;50.850;2.904;2023-03-14T15:30:15;18.80;51.80
21214;DHT22;10764;50.850;2.904;2023-03-14T15:32:42;18.80;51.70
21214;DHT22;10764;50.850;2.904;2023-03-14T15:35:09;20.10;52.20
21214;DHT22;10764;50.850;2.904;2023-03-14T15:37:36;19.20;51.70
21214;DHT22;10764;50.850;2.904;2023-03-14T15:40:04;20.70;52.40
21214;DHT22;10764;50.850;2.904;2023-03-14T15:42:38;18.90;51.40
21214;DHT22;10764;50.850;2.904;2023-03-14T15:45:05;18.90;51.50
21214;DHT22;10764;50.850;2.904;2023-03-14T15:47:32;18.90;51.20
21214;DHT22;10764;50.850;2.904;2023-03-14T15:49:59;20.60;52.00
21214;DHT22;10764;50.850;2.904;2023-03-14T15:52:26;21.30;52.40
21214;DHT22;10764;50.850;2.904;2023-03-14T15:54:52;19.60;51.70
21214;DHT22;10764;50.850;2.904;2023-03-14T15:57:19;19.60;51.70
21214;DHT22;10764;50.850;2.904;2023-03-14T15:59:46;19.00;51.40
21214;DHT22;10764;50.850;2.904;2023-03-14T16:02:13;18.80;51.30
21214;DHT22;10764;50.850;2.904;2023-03-14T16:04:40;18.80;51.30
21214;DHT22;10764;50.850;2.904;2023-03-14T16:07:07;20.40;52.00
21214;DHT22;10764;50.850;2.904;2023-03-14T16:09:34;18.90;51.30
21214;DHT22;10764;50.850;2.904;2023-03-14T16:12:00;21.00;52.40
21214;DHT22;10764;50.850;2.904;2023-03-14T16:14:27;21.10;52.40
21214;DHT22;10764;50.850;2.904;2023-03-14T16:16:54;20.90;52.30
21214;DHT22;10764;50.850;2.904;2023-03-14T16:19:21;18.80;51.90
21214;DHT22;10764;50.850;2.904;2023-03-14T16:21:48;18.80;51.10
21214;DHT22;10764;50.850;2.904;2023-03-14T16:24:18;18.80;51.20
21214;DHT22;10764;50.850;2.904;2023-03-14T16:26:44;18.80;51.10
21214;DHT22;10764;50.850;2.904;2023-03-14T16:29:12;20.50;51.90
21214;DHT22;10764;50.850;2.904;2023-03-14T16:31:39;18.80;51.00
21214;DHT22;10764;50.850;2.904;2023-03-14T16:34:09;20.50;51.90
21214;DHT22;10764;50.850;2.904;2023-03-14T16:36:35;19.00;51.20
21214;DHT22;10764;50.850;2.904;2023-03-14T16:39:03;20.10;51.70
21214;DHT22;10764;50.850;2.904;2023-03-14T16:41:30;18.80;51.00
21214;DHT22;10764;50.850;2.904;2023-03-14T16:43:58;20.30;51.70
21214;DHT22;10764;50.850;2.904;2023-03-14T16:46:25;20.80;51.80
21214;DHT22;10764;50.850;2.904;2023-03-14T16:48:56;18.90;50.80
21214;DHT22;10764;50.850;2.904;2023-03-14T16:51:23;19.10;50.80
21214;DHT22;10764;50.850;2.904;2023-03-14T16:53:50;18.90;50.70
21214;DHT22;10764;50.850;2.904;2023-03-14T16:56:17;19.50;50.90
21214;DHT22;10764;50.850;2.904;2023-03-14T16:58:44;18.90;50.60